createdAt,value
2018-02-17T00:02:00.062Z,58.80
2018-02-17T00:04:26.755Z,58.70
2018-02-17T00:06:53.681Z,58.70
2018-02-17T00:09:20.299Z,60.10
2018-02-17T00:11:46.915Z,58.80
2018-02-17T00:14:13.655Z,59.00
2018-02-17T00:16:40.253Z,59.50
2018-02-17T00:19:06.848Z,60.30
2018-02-17T00:21:33.451Z,59.30
2018-02-17T00:24:00.040Z,59.10
2018-02-17T00:26:26.779Z,59.40
2018-02-17T00:28:53.371Z,59.70
2018-02-17T00:31:20.765Z,60.20
2018-02-17T00:33:47.397Z,60.10
2018-02-17T00:36:14.140Z,60.10
2018-02-17T00:38:40.734Z,59.40
2018-02-17T00:41:07.327Z,60.40
2018-02-17T00:43:33.986Z,60.00
2018-02-17T00:46:00.672Z,60.70
2018-02-17T00:48:27.328Z,60.20
2018-02-17T00:50:53.994Z,60.60
2018-02-17T00:53:20.627Z,60.60
2018-02-17T00:55:47.262Z,60.70
2018-02-17T00:58:13.900Z,61.00
2018-02-17T01:00:40.491Z,61.30
2018-02-17T01:03:07.859Z,61.50
2018-02-17T01:05:35.199Z,61.40
2018-02-17T01:08:01.857Z,61.30
2018-02-17T01:10:28.522Z,61.30
2018-02-17T01:12:55.159Z,61.10
2018-02-17T01:15:21.750Z,61.00
2018-02-17T01:17:48.369Z,61.40
2018-02-17T01:20:14.959Z,60.50
2018-02-17T01:22:41.624Z,59.90
2018-02-17T01:25:08.247Z,59.90
2018-02-17T01:27:34.875Z,61.00
2018-02-17T01:30:01.450Z,62.00
2018-02-17T01:32:28.114Z,61.10
2018-02-17T01:34:54.736Z,60.80
2018-02-17T01:37:22.136Z,61.30
2018-02-17T01:39:48.772Z,61.30
2018-02-17T01:42:16.152Z,62.00
2018-02-17T01:44:42.764Z,62.00
2018-02-17T01:47:09.435Z,61.60
2018-02-17T01:49:36.044Z,61.60
2018-02-17T01:52:02.716Z,61.80
2018-02-17T01:54:29.354Z,61.80
2018-02-17T01:56:56.055Z,61.90
2018-02-17T01:59:23.379Z,61.50
2018-02-17T02:01:49.966Z,61.50
2018-02-17T02:04:16.570Z,60.50
2018-02-17T02:06:43.189Z,60.70
2018-02-17T02:09:09.795Z,61.00
2018-02-17T02:11:36.443Z,60.50
2018-02-17T02:14:03.078Z,58.90
2018-02-17T02:16:29.731Z,58.80
2018-02-17T02:18:56.342Z,59.10
2018-02-17T02:21:22.945Z,60.80
2018-02-17T02:23:49.539Z,60.40
2018-02-17T02:26:16.136Z,61.40
2018-02-17T02:28:42.780Z,61.70
2018-02-17T02:31:09.371Z,61.70
2018-02-17T02:33:36.301Z,62.00
2018-02-17T02:36:02.907Z,61.80
2018-02-17T02:38:29.535Z,61.80
2018-02-17T02:40:56.208Z,61.70
2018-02-17T02:43:22.831Z,61.90
2018-02-17T02:45:49.461Z,60.90
2018-02-17T02:48:16.067Z,60.60
2018-02-17T02:50:42.683Z,61.00
2018-02-17T02:53:09.330Z,61.40
2018-02-17T02:55:36.695Z,60.10
2018-02-17T02:58:04.080Z,59.00
2018-02-17T03:00:30.699Z,59.00
2018-02-17T03:02:57.305Z,59.50
2018-02-17T03:05:23.891Z,59.90
2018-02-17T03:07:50.494Z,58.90
2018-02-17T03:10:17.110Z,59.50
2018-02-17T03:12:43.720Z,59.00
2018-02-17T03:15:10.347Z,58.90
2018-02-17T03:17:36.992Z,59.70
2018-02-17T03:20:03.591Z,59.40
2018-02-17T03:22:30.932Z,60.20
2018-02-17T03:24:57.557Z,60.00
2018-02-17T03:27:24.199Z,60.60
2018-02-17T03:29:50.790Z,60.40
2018-02-17T03:32:17.385Z,61.00
2018-02-17T03:34:44.730Z,61.90
2018-02-17T03:37:12.120Z,61.70
2018-02-17T03:39:39.540Z,62.00
2018-02-17T03:42:06.149Z,62.00
2018-02-17T03:44:32.735Z,62.50
2018-02-17T03:47:00.060Z,62.80
2018-02-17T03:49:26.669Z,62.80
2018-02-17T03:51:53.234Z,61.40
2018-02-17T03:54:19.928Z,61.60
2018-02-17T03:56:46.506Z,61.60
2018-02-17T03:59:13.066Z,61.90
2018-02-17T04:01:40.422Z,62.90
2018-02-17T04:04:07.739Z,62.50
2018-02-17T04:06:34.366Z,62.50
2018-02-17T04:09:00.918Z,62.40
2018-02-17T04:11:27.557Z,62.30
2018-02-17T04:13:54.170Z,61.30
2018-02-17T04:16:20.758Z,60.60
2018-02-17T04:18:48.084Z,61.40
2018-02-17T04:21:14.719Z,61.40
2018-02-17T04:23:42.088Z,62.00
2018-02-17T04:26:08.691Z,61.80
2018-02-17T04:28:35.306Z,62.10
2018-02-17T04:31:01.872Z,62.20
2018-02-17T04:33:28.560Z,60.80
2018-02-17T04:35:55.193Z,59.90
2018-02-17T04:38:21.863Z,59.80
2018-02-17T04:40:52.353Z,60.10
2018-02-17T04:43:24.614Z,59.00
2018-02-17T04:45:59.060Z,59.00
2018-02-17T05:01:57.573Z,60.00
2018-02-17T05:17:51.106Z,62.00
2018-02-17T05:33:46.148Z,63.20
2018-02-17T05:36:13.613Z,63.00
2018-02-17T05:38:42.077Z,63.40
2018-02-17T05:41:22.646Z,62.80
2018-02-17T05:43:49.310Z,63.10
2018-02-17T05:46:15.917Z,63.00
2018-02-17T05:48:46.466Z,63.00
2018-02-17T05:51:13.090Z,63.20
2018-02-17T05:53:40.431Z,63.40
2018-02-17T05:56:07.050Z,63.40
2018-02-17T05:58:33.665Z,63.70
2018-02-17T06:01:00.351Z,63.50
2018-02-17T06:03:27.026Z,62.70
2018-02-17T06:05:53.711Z,64.00
2018-02-17T06:08:20.379Z,63.20
2018-02-17T06:10:46.963Z,63.20
2018-02-17T06:13:13.559Z,63.80
2018-02-17T06:15:40.179Z,63.60
2018-02-17T06:18:06.871Z,64.10
2018-02-17T06:20:33.473Z,64.80
2018-02-17T06:23:00.074Z,65.00
2018-02-17T06:25:27.443Z,64.80
2018-02-17T06:27:54.763Z,64.10
2018-02-17T06:30:21.375Z,64.10
2018-02-17T06:32:47.964Z,63.90
2018-02-17T06:35:15.306Z,64.00
2018-02-17T06:37:41.891Z,64.70
2018-02-17T06:40:08.506Z,64.10
2018-02-17T06:42:35.171Z,63.60
2018-02-17T06:45:01.885Z,63.90
2018-02-17T06:47:28.615Z,64.00
2018-02-17T06:49:55.982Z,64.20
2018-02-17T06:52:23.325Z,64.50
2018-02-17T06:54:49.970Z,64.40
2018-02-17T06:57:16.578Z,64.30
2018-02-17T06:59:43.235Z,64.10
2018-02-17T07:02:10.759Z,63.70
2018-02-17T07:04:37.315Z,63.60
2018-02-17T07:07:04.668Z,64.70
2018-02-17T07:09:32.057Z,64.50
2018-02-17T07:11:58.706Z,64.50
2018-02-17T07:14:25.276Z,65.20
2018-02-17T07:16:51.915Z,64.80
2018-02-17T07:19:18.519Z,65.10
2018-02-17T07:21:45.138Z,64.50
2018-02-17T07:24:11.775Z,64.20
2018-02-17T07:26:38.391Z,64.80
2018-02-17T07:29:05.782Z,65.20
2018-02-17T07:31:32.885Z,65.10
2018-02-17T07:33:59.498Z,65.40
2018-02-17T07:36:26.136Z,65.20
2018-02-17T07:38:52.762Z,65.20
2018-02-17T07:41:19.385Z,65.30
2018-02-17T07:43:46.076Z,65.40
2018-02-17T07:46:13.491Z,64.80
2018-02-17T07:48:40.107Z,64.80
2018-02-17T07:51:06.729Z,65.40
2018-02-17T07:53:33.310Z,65.10
2018-02-17T07:56:00.019Z,65.20
2018-02-17T07:58:26.669Z,65.40
2018-02-17T08:00:53.256Z,64.80
2018-02-17T08:03:20.615Z,64.00
2018-02-17T08:05:47.212Z,64.00
2018-02-17T08:08:13.909Z,63.90
2018-02-17T08:10:40.569Z,63.90
2018-02-17T08:13:07.179Z,64.60
2018-02-17T08:15:33.820Z,64.70
2018-02-17T08:18:00.462Z,65.10
2018-02-17T08:20:27.125Z,64.80
2018-02-17T08:22:53.714Z,64.20
2018-02-17T08:25:21.036Z,64.00
2018-02-17T08:27:47.684Z,64.00
2018-02-17T08:30:15.054Z,64.10
2018-02-17T08:32:42.438Z,64.60
2018-02-17T08:35:09.034Z,64.50
2018-02-17T08:37:35.730Z,65.60
2018-02-17T08:40:02.372Z,64.90
2018-02-17T08:42:29.048Z,64.10
2018-02-17T08:44:55.684Z,64.00
2018-02-17T08:47:22.306Z,65.00
2018-02-17T08:49:48.959Z,65.00
2018-02-17T08:52:15.569Z,64.70
2018-02-17T08:54:42.194Z,64.70
2018-02-17T08:57:08.805Z,65.20
2018-02-17T08:59:35.470Z,64.60
2018-02-17T09:02:02.135Z,64.60
2018-02-17T09:04:28.760Z,64.00
2018-02-17T09:06:56.077Z,64.20
2018-02-17T09:09:22.699Z,64.20
2018-02-17T09:11:50.088Z,63.80
2018-02-17T09:14:16.676Z,63.70
2018-02-17T09:16:44.054Z,64.10
2018-02-17T09:19:10.769Z,64.00
2018-02-17T09:21:37.366Z,63.70
2018-02-17T09:24:03.992Z,64.40
2018-02-17T09:26:30.587Z,63.50
2018-02-17T09:28:57.993Z,63.60
2018-02-17T09:31:24.565Z,63.60
2018-02-17T09:33:51.166Z,63.30
2018-02-17T09:36:17.843Z,64.10
2018-02-17T09:38:45.204Z,62.00
2018-02-17T09:41:11.814Z,61.90
2018-02-17T09:43:38.474Z,62.30
2018-02-17T09:46:05.074Z,62.20
2018-02-17T09:48:31.664Z,62.10
2018-02-17T09:50:59.046Z,61.70
2018-02-17T09:53:25.810Z,61.60
2018-02-17T09:55:52.387Z,62.30
2018-02-17T09:58:19.742Z,62.30
2018-02-17T10:00:46.378Z,62.30
2018-02-17T10:03:12.980Z,62.10
2018-02-17T10:05:39.566Z,61.80
2018-02-17T10:08:06.923Z,62.60
2018-02-17T10:10:33.516Z,62.50
2018-02-17T10:13:00.123Z,62.90
2018-02-17T10:15:26.706Z,62.10
2018-02-17T10:17:53.310Z,62.20
2018-02-17T10:20:19.919Z,62.70
2018-02-17T10:22:46.569Z,63.50
2018-02-17T10:25:13.207Z,63.50
2018-02-17T10:27:39.781Z,64.20
2018-02-17T10:30:06.407Z,64.70
2018-02-17T10:32:33.148Z,64.60
2018-02-17T10:34:59.773Z,65.20
2018-02-17T10:37:26.407Z,64.80
2018-02-17T10:39:53.004Z,64.80
2018-02-17T10:42:20.375Z,64.70
2018-02-17T10:44:46.966Z,64.70
2018-02-17T10:47:14.290Z,64.00
2018-02-17T10:49:40.962Z,63.90
2018-02-17T10:52:07.608Z,63.40
2018-02-17T10:54:34.316Z,63.40
2018-02-17T10:57:00.883Z,62.90
2018-02-17T10:59:27.559Z,62.50
2018-02-17T11:01:54.186Z,61.40
2018-02-17T11:04:20.798Z,61.90
2018-02-17T11:06:47.415Z,61.60
2018-02-17T11:09:13.978Z,62.30
2018-02-17T11:11:41.347Z,60.90
2018-02-17T11:14:07.915Z,60.90
2018-02-17T11:16:36.447Z,60.90
2018-02-17T11:19:03.043Z,61.20
2018-02-17T11:21:29.695Z,62.70
2018-02-17T11:23:56.259Z,61.10
2018-02-17T11:26:23.606Z,61.00
2018-02-17T11:28:50.174Z,60.90
2018-02-17T11:31:16.772Z,60.40
2018-02-17T11:33:43.407Z,59.70
2018-02-17T11:36:09.967Z,59.50
2018-02-17T11:38:37.311Z,61.40
2018-02-17T11:41:04.649Z,61.00
2018-02-17T11:43:32.004Z,60.70
2018-02-17T11:45:58.579Z,60.70
2018-02-17T11:48:25.225Z,60.50
2018-02-17T11:50:52.574Z,60.90
2018-02-17T11:53:19.215Z,60.90
2018-02-17T11:55:45.900Z,61.50
2018-02-17T11:58:12.623Z,61.10
2018-02-17T12:00:39.306Z,60.40
2018-02-17T12:03:06.655Z,60.70
2018-02-17T12:05:33.982Z,61.00
2018-02-17T12:08:00.574Z,61.00
2018-02-17T12:10:27.165Z,61.50
2018-02-17T12:12:53.766Z,62.50
2018-02-17T12:15:20.384Z,63.00
2018-02-17T12:17:46.991Z,62.40
2018-02-17T12:20:13.572Z,63.10
2018-02-17T12:22:40.177Z,62.40
2018-02-17T12:25:06.818Z,63.10
2018-02-17T12:27:34.143Z,62.30
2018-02-17T12:30:00.754Z,62.20
2018-02-17T12:35:35.256Z,61.10
2018-02-17T12:38:02.599Z,60.60
2018-02-17T12:40:29.894Z,61.40
2018-02-17T12:42:56.456Z,61.30
2018-02-17T12:45:23.041Z,61.50
2018-02-17T12:47:49.638Z,61.30
2018-02-17T12:50:16.222Z,61.30
2018-02-17T12:52:43.283Z,61.40
2018-02-17T12:55:09.985Z,62.30
2018-02-17T12:57:36.565Z,62.00
2018-02-17T13:00:03.228Z,63.00
2018-02-17T13:02:30.560Z,61.80
2018-02-17T13:04:57.141Z,62.50
2018-02-17T13:07:23.762Z,61.10
2018-02-17T13:09:50.359Z,60.20
2018-02-17T13:12:16.975Z,60.10
2018-02-17T13:14:44.289Z,60.40
2018-02-17T13:17:10.856Z,60.40
2018-02-17T13:19:38.227Z,60.70
2018-02-17T13:22:04.802Z,60.60
2018-02-17T13:24:31.403Z,61.00
2018-02-17T13:26:57.946Z,60.90
2018-02-17T13:29:24.759Z,61.40
2018-02-17T13:31:52.058Z,61.90
2018-02-17T13:34:19.414Z,62.00
2018-02-17T13:36:46.082Z,61.90
2018-02-17T13:39:12.627Z,62.80
2018-02-17T13:41:39.936Z,62.40
2018-02-17T13:44:06.534Z,62.40
2018-02-17T13:46:33.866Z,62.70
2018-02-17T13:49:00.470Z,62.70
2018-02-17T13:51:27.028Z,62.80
2018-02-17T13:53:53.603Z,62.80
2018-02-17T13:56:20.226Z,62.00
2018-02-17T13:58:47.555Z,62.10
2018-02-17T14:01:14.123Z,62.10
2018-02-17T14:03:40.705Z,62.00
2018-02-17T14:06:07.317Z,62.00
2018-02-17T14:08:34.043Z,63.40
2018-02-17T14:11:00.636Z,62.70
2018-02-17T14:13:27.209Z,62.50
2018-02-17T14:15:53.786Z,61.80
2018-02-17T14:18:20.360Z,62.30
2018-02-17T14:20:47.723Z,61.90
2018-02-17T14:23:15.007Z,63.20
2018-02-17T14:25:41.587Z,62.40
2018-02-17T14:28:08.150Z,62.50
2018-02-17T14:30:34.747Z,62.60
2018-02-17T14:33:01.331Z,62.60
2018-02-17T14:35:28.685Z,62.70
2018-02-17T14:37:56.003Z,62.60
2018-02-17T14:40:22.607Z,62.60
2018-02-17T14:42:49.232Z,63.40
2018-02-17T14:45:16.639Z,63.40
2018-02-17T14:47:43.230Z,63.30
2018-02-17T14:50:09.850Z,63.80
2018-02-17T14:52:36.480Z,63.80
2018-02-17T14:55:03.863Z,63.20
2018-02-17T14:57:30.467Z,63.20
2018-02-17T14:59:57.054Z,63.90
2018-02-17T15:02:23.671Z,63.40
2018-02-17T15:04:50.226Z,63.60
2018-02-17T15:07:16.827Z,63.00
2018-02-17T15:09:43.427Z,63.60
2018-02-17T15:12:10.883Z,64.00
2018-02-17T15:14:38.278Z,64.30
2018-02-17T15:17:05.103Z,64.20
2018-02-17T15:19:32.458Z,64.60
2018-02-17T15:21:59.710Z,64.60
2018-02-17T15:24:27.017Z,64.80
2018-02-17T15:26:53.620Z,64.80
2018-02-17T15:29:20.207Z,65.30
2018-02-17T15:31:46.763Z,65.10
2018-02-17T15:34:14.289Z,64.90
2018-02-17T15:36:40.961Z,64.90
2018-02-17T15:39:07.914Z,65.70
2018-02-17T15:41:34.614Z,65.90
2018-02-17T15:44:01.212Z,66.00
2018-02-17T15:46:27.821Z,65.80
2018-02-17T15:48:55.135Z,66.00
2018-02-17T15:51:21.718Z,66.00
2018-02-17T15:53:49.042Z,65.50
2018-02-17T15:56:15.616Z,65.40
2018-02-17T15:58:42.207Z,65.40
2018-02-17T16:01:09.588Z,66.40
2018-02-17T16:03:37.194Z,65.70
2018-02-17T16:06:04.545Z,65.40
2018-02-17T16:08:31.114Z,65.40
2018-02-17T16:10:57.689Z,65.10
2018-02-17T16:13:24.258Z,65.40
2018-02-17T16:15:50.882Z,65.80
2018-02-17T16:18:17.614Z,66.20
2018-02-17T16:20:44.235Z,65.10
2018-02-17T16:23:11.586Z,66.60
2018-02-17T16:25:38.929Z,66.40
2018-02-17T16:28:05.490Z,66.30
2018-02-17T16:30:32.068Z,65.70
2018-02-17T16:32:58.654Z,66.20
2018-02-17T16:35:25.268Z,66.20
2018-02-17T16:37:51.986Z,66.00
2018-02-17T16:40:18.591Z,66.10
2018-02-17T16:42:45.170Z,65.60
2018-02-17T16:45:12.086Z,65.50
2018-02-17T16:47:38.664Z,65.80
2018-02-17T16:50:06.087Z,65.90
2018-02-17T16:52:33.039Z,65.90
2018-02-17T16:55:00.386Z,65.50
2018-02-17T16:57:26.988Z,65.50
2018-02-17T16:59:53.590Z,66.20
2018-02-17T17:02:20.202Z,65.80
2018-02-17T17:04:46.769Z,65.40
2018-02-17T17:07:14.208Z,66.00
2018-02-17T17:09:40.821Z,65.90
2018-02-17T17:12:07.454Z,65.30
2018-02-17T17:14:34.043Z,65.10
2018-02-17T17:17:00.667Z,66.00
2018-02-17T17:19:27.246Z,66.00
2018-02-17T17:21:53.847Z,65.80
2018-02-17T17:24:21.165Z,67.00
2018-02-17T17:26:47.739Z,67.70
2018-02-17T17:29:15.093Z,66.10
2018-02-17T17:31:42.407Z,67.00
2018-02-17T17:34:09.040Z,66.20
2018-02-17T17:36:35.729Z,65.40
2018-02-17T17:39:02.380Z,66.50
2018-02-17T17:41:29.044Z,67.00
2018-02-17T17:43:55.725Z,65.80
2018-02-17T17:46:23.287Z,66.60
2018-02-17T17:48:49.946Z,66.50
2018-02-17T17:51:16.549Z,65.50
2018-02-17T17:53:43.139Z,66.20
2018-02-17T17:56:09.708Z,66.90
2018-02-17T17:58:36.652Z,66.80
2018-02-17T18:01:03.249Z,66.90
2018-02-17T18:03:29.840Z,66.70
2018-02-17T18:05:56.456Z,66.30
2018-02-17T18:08:23.059Z,65.80
2018-02-17T18:10:49.639Z,65.90
2018-02-17T18:13:16.254Z,66.40
2018-02-17T18:15:42.868Z,66.80
2018-02-17T18:18:09.824Z,66.70
2018-02-17T18:20:36.408Z,66.70
2018-02-17T18:23:02.976Z,66.80
2018-02-17T18:25:29.638Z,66.70
2018-02-17T18:27:56.373Z,66.80
2018-02-17T18:30:22.990Z,66.80
2018-02-17T18:32:49.735Z,66.80
2018-02-17T18:35:16.306Z,66.80
2018-02-17T18:37:42.886Z,67.10
2018-02-17T18:40:10.186Z,67.20
2018-02-17T18:42:36.771Z,67.20
2018-02-17T18:45:03.356Z,67.70
2018-02-17T18:47:29.997Z,67.40
2018-02-17T18:49:56.590Z,67.20
2018-02-17T18:52:23.919Z,67.50
2018-02-17T18:54:50.514Z,67.50
2018-02-17T18:57:17.071Z,67.30
2018-02-17T18:59:43.695Z,67.00
2018-02-17T19:02:10.274Z,66.80
2018-02-17T19:04:36.854Z,67.00
2018-02-17T19:07:03.543Z,67.40
2018-02-17T19:09:30.171Z,67.50
2018-02-17T19:11:56.843Z,67.80
2018-02-17T19:14:23.419Z,68.30
2018-02-17T19:16:49.992Z,67.70
2018-02-17T19:19:16.570Z,67.70
2018-02-17T19:21:43.158Z,67.70
2018-02-17T19:24:09.723Z,68.20
2018-02-17T19:26:36.324Z,66.80
2018-02-17T19:29:02.918Z,66.70
2018-02-17T19:31:29.593Z,66.80
2018-02-17T19:33:56.487Z,66.70
2018-02-17T19:36:23.098Z,67.00
2018-02-17T19:38:49.779Z,67.60
2018-02-17T19:41:16.390Z,67.80
2018-02-17T19:43:42.998Z,67.80
2018-02-17T19:46:09.590Z,68.40
2018-02-17T19:48:36.200Z,68.10
2018-02-17T19:51:02.794Z,68.10
2018-02-17T19:53:29.456Z,67.80
2018-02-17T19:55:56.116Z,67.40
2018-02-17T19:58:23.461Z,67.10
2018-02-17T20:00:50.103Z,67.10
2018-02-17T20:03:17.441Z,66.90
2018-02-17T20:05:44.007Z,66.80
2018-02-17T20:08:10.653Z,66.60
2018-02-17T20:10:37.273Z,67.20
2018-02-17T20:13:04.585Z,67.50
2018-02-17T20:15:31.160Z,67.50
2018-02-17T20:17:58.532Z,68.40
2018-02-17T20:20:25.131Z,68.30
2018-02-17T20:22:51.734Z,68.00
2018-02-17T20:25:18.351Z,68.10
2018-02-17T20:27:45.023Z,68.00
2018-02-17T20:30:11.731Z,67.60
2018-02-17T20:32:38.322Z,67.20
2018-02-17T20:35:04.868Z,67.20
2018-02-17T20:37:32.207Z,67.20
2018-02-17T20:39:58.853Z,67.20
2018-02-17T20:42:26.226Z,67.30
2018-02-17T20:44:53.564Z,67.60
2018-02-17T20:47:20.164Z,67.50
2018-02-17T20:49:46.787Z,67.80
2018-02-17T20:52:13.422Z,67.40
2018-02-17T20:54:40.033Z,67.90
2018-02-17T20:57:06.644Z,67.20
2018-02-17T20:59:33.227Z,66.80
2018-02-17T21:01:59.897Z,68.10
2018-02-17T21:04:26.499Z,67.40
2018-02-17T21:06:53.083Z,67.60
2018-02-17T21:09:19.700Z,67.10
2018-02-17T21:11:46.414Z,66.70
2018-02-17T21:14:13.034Z,66.30
2018-02-17T21:16:39.626Z,66.40
2018-02-17T21:19:06.234Z,69.30
2018-02-17T21:21:32.861Z,70.90
2018-02-17T21:23:59.481Z,72.10
2018-02-17T21:26:26.178Z,72.00
2018-02-17T21:28:52.791Z,71.80
2018-02-17T21:31:19.466Z,71.90
2018-02-17T21:33:46.046Z,71.20
2018-02-17T21:36:12.701Z,70.70
2018-02-17T21:38:39.306Z,70.50
2018-02-17T21:41:05.891Z,70.30
2018-02-17T21:43:32.524Z,69.10
2018-02-17T21:45:59.103Z,69.70
2018-02-17T21:48:25.795Z,69.90
2018-02-17T21:50:52.423Z,69.80
2018-02-17T21:53:19.012Z,68.90
2018-02-17T21:55:46.366Z,68.00
2018-02-17T21:58:13.683Z,67.90
2018-02-17T22:00:40.320Z,67.80
2018-02-17T22:03:06.938Z,69.20
2018-02-17T22:05:34.319Z,68.90
2018-02-17T22:08:00.936Z,68.80
2018-02-17T22:10:27.499Z,68.80
2018-02-17T22:12:54.124Z,68.50
2018-02-17T22:15:20.857Z,68.40
2018-02-17T22:17:47.468Z,69.40
2018-02-17T22:20:14.032Z,69.50
2018-02-17T22:22:40.613Z,68.80
2018-02-17T22:25:07.956Z,68.10
2018-02-17T22:27:34.547Z,68.00
2018-02-17T22:30:01.194Z,68.00
2018-02-17T22:32:27.783Z,68.80
2018-02-17T22:34:55.094Z,67.60
2018-02-17T22:37:21.655Z,67.50
2018-02-17T22:39:48.206Z,67.90
2018-02-17T22:42:14.808Z,67.70
2018-02-17T22:44:41.426Z,67.90
2018-02-17T22:47:07.999Z,67.90
2018-02-17T22:49:34.593Z,68.10
2018-02-17T22:52:01.242Z,68.10
2018-02-17T22:54:27.911Z,68.20
2018-02-17T22:56:54.477Z,68.20
2018-02-17T22:59:21.016Z,68.20
2018-02-17T23:01:47.621Z,68.20
2018-02-17T23:04:14.978Z,68.70
2018-02-17T23:06:42.375Z,68.90
2018-02-17T23:09:08.998Z,68.90
2018-02-17T23:11:35.644Z,69.30
2018-02-17T23:14:02.251Z,68.20
2018-02-17T23:16:29.547Z,69.20
2018-02-17T23:18:56.102Z,69.20
2018-02-17T23:21:22.712Z,68.70
2018-02-17T23:23:49.282Z,68.10
2018-02-17T23:26:15.885Z,67.80
2018-02-17T23:28:42.471Z,67.40
2018-02-17T23:31:09.023Z,68.70
2018-02-17T23:33:36.334Z,67.60
2018-02-17T23:36:02.902Z,67.60
2018-02-17T23:38:30.317Z,67.90
2018-02-17T23:40:56.861Z,67.90
2018-02-17T23:43:23.437Z,67.80
2018-02-17T23:45:50.732Z,68.50
2018-02-17T23:48:17.346Z,68.40
2018-02-17T23:50:43.923Z,68.60
2018-02-17T23:53:10.529Z,68.90
2018-02-17T23:55:37.146Z,69.00
2018-02-17T23:58:03.787Z,68.60
